createdAt,value
2019-05-10T00:01:57.009Z,3.85
2019-05-10T00:04:44.002Z,4.53
2019-05-10T00:07:30.937Z,4.95
2019-05-10T00:09:59.371Z,4.00
2019-05-10T00:12:45.397Z,4.45
2019-05-10T00:15:16.952Z,4.78
2019-05-10T00:17:46.663Z,3.95
2019-05-10T00:20:16.086Z,4.12
2019-05-10T00:22:46.592Z,4.35
2019-05-10T00:25:15.894Z,3.87
2019-05-10T00:27:45.229Z,3.95
2019-05-10T00:30:14.542Z,4.03
2019-05-10T00:32:43.933Z,3.08
2019-05-10T00:35:13.316Z,4.35
2019-05-10T00:37:42.591Z,3.77
2019-05-10T00:40:12.010Z,3.12
2019-05-10T00:42:41.362Z,3.27
2019-05-10T00:45:10.916Z,3.42
2019-05-10T00:47:40.322Z,3.77
2019-05-10T00:50:09.930Z,4.30
2019-05-10T00:52:39.237Z,3.60
2019-05-10T00:55:18.327Z,4.25
2019-05-10T00:57:39.584Z,3.92
2019-05-10T01:00:09.303Z,3.65
2019-05-10T01:02:38.581Z,3.47
2019-05-10T01:05:07.985Z,3.37
2019-05-10T01:07:37.293Z,3.02
2019-05-10T01:10:07.701Z,3.90
2019-05-10T01:12:36.943Z,3.37
2019-05-10T01:15:06.496Z,3.20
2019-05-10T01:17:35.868Z,3.00
2019-05-10T01:20:05.378Z,4.05
2019-05-10T01:22:34.706Z,3.45
2019-05-10T01:25:05.494Z,3.75
2019-05-10T01:27:34.802Z,3.55
2019-05-10T01:30:04.468Z,3.70
2019-05-10T01:32:33.803Z,4.30
2019-05-10T01:35:03.136Z,4.62
2019-05-10T01:37:32.477Z,3.98
2019-05-10T01:40:01.889Z,4.25
2019-05-10T01:42:31.288Z,4.15
2019-05-10T01:45:00.625Z,3.52
2019-05-10T01:47:29.991Z,4.08
2019-05-10T01:49:59.310Z,4.08
2019-05-10T01:52:28.692Z,4.05
2019-05-10T01:54:57.978Z,4.05
2019-05-10T01:57:27.326Z,4.75
2019-05-10T01:59:56.586Z,5.17
2019-05-10T02:02:25.873Z,4.75
2019-05-10T02:04:55.236Z,3.85
2019-05-10T02:07:24.591Z,3.75
2019-05-10T02:09:53.895Z,4.53
2019-05-10T02:12:23.227Z,4.35
2019-05-10T02:14:52.591Z,4.40
2019-05-10T02:17:21.893Z,5.45
2019-05-10T02:19:51.305Z,4.85
2019-05-10T02:22:20.632Z,4.95
2019-05-10T02:24:50.111Z,5.08
2019-05-10T02:27:19.498Z,5.30
2019-05-10T02:29:48.782Z,5.80
2019-05-10T02:32:18.136Z,6.03
2019-05-10T02:34:47.510Z,7.15
2019-05-10T02:37:16.938Z,5.10
2019-05-10T02:39:46.322Z,6.00
2019-05-10T02:42:15.792Z,5.92
2019-05-10T02:44:45.390Z,5.37
2019-05-10T02:47:14.699Z,6.03
2019-05-10T02:49:44.071Z,7.47
2019-05-10T02:52:13.507Z,6.83
2019-05-10T02:54:43.730Z,7.50
2019-05-10T02:57:14.026Z,6.10
2019-05-10T02:59:44.632Z,6.60
2019-05-10T03:02:15.008Z,6.72
2019-05-10T03:04:46.579Z,6.45
2019-05-10T03:07:17.973Z,6.28
2019-05-10T03:09:50.208Z,6.15
2019-05-10T03:12:24.640Z,5.95
2019-05-10T03:14:55.668Z,6.35
2019-05-10T03:17:25.630Z,7.58
2019-05-10T03:19:55.205Z,5.40
2019-05-10T03:22:26.113Z,6.65
2019-05-10T03:24:55.786Z,5.92
2019-05-10T03:27:25.123Z,7.75
2019-05-10T03:29:54.419Z,6.60
2019-05-10T03:32:23.665Z,7.25
2019-05-10T03:34:52.994Z,9.03
2019-05-10T03:37:22.374Z,9.00
2019-05-10T03:39:51.782Z,8.55
2019-05-10T03:42:21.163Z,7.97
2019-05-10T03:44:50.494Z,7.45
2019-05-10T03:47:19.846Z,8.25
2019-05-10T03:49:49.139Z,7.33
2019-05-10T03:52:18.503Z,7.97
2019-05-10T03:54:47.839Z,7.45
2019-05-10T03:57:17.168Z,7.15
2019-05-10T03:59:46.593Z,9.53
2019-05-10T04:02:15.921Z,8.80
2019-05-10T04:04:45.366Z,8.60
2019-05-10T04:07:14.820Z,8.65
2019-05-10T04:09:44.074Z,9.65
2019-05-10T04:12:13.364Z,9.00
2019-05-10T04:14:42.755Z,9.30
2019-05-10T04:17:12.076Z,8.75
2019-05-10T04:19:41.425Z,7.65
2019-05-10T04:22:10.760Z,5.90
2019-05-10T04:24:40.085Z,7.35
2019-05-10T04:27:09.402Z,5.85
2019-05-10T04:29:38.839Z,6.50
2019-05-10T04:32:08.215Z,6.90
2019-05-10T04:34:37.591Z,6.25
2019-05-10T04:37:06.952Z,5.50
2019-05-10T04:39:36.145Z,5.92
2019-05-10T04:42:05.368Z,6.12
2019-05-10T04:44:34.656Z,6.20
2019-05-10T04:47:04.062Z,5.80
2019-05-10T04:49:33.468Z,6.55
2019-05-10T04:52:02.924Z,5.85
2019-05-10T04:54:37.004Z,6.62
2019-05-10T04:57:06.297Z,7.22
2019-05-10T04:59:35.643Z,6.65
2019-05-10T05:02:04.990Z,7.25
2019-05-10T05:04:34.285Z,6.35
2019-05-10T05:07:03.672Z,7.20
2019-05-10T05:09:33.178Z,6.45
2019-05-10T05:12:02.644Z,6.60
2019-05-10T05:14:32.069Z,6.70
2019-05-10T05:17:01.445Z,7.05
2019-05-10T05:19:31.040Z,6.50
2019-05-10T05:22:00.430Z,5.72
2019-05-10T05:24:29.786Z,6.30
2019-05-10T05:26:59.165Z,5.53
2019-05-10T05:29:28.590Z,6.12
2019-05-10T05:32:01.393Z,5.97
2019-05-10T05:34:28.916Z,6.90
2019-05-10T05:36:58.355Z,5.58
2019-05-10T05:39:27.686Z,7.00
2019-05-10T05:41:57.913Z,5.67
2019-05-10T05:44:27.870Z,6.20
2019-05-10T05:46:57.558Z,7.00
2019-05-10T05:49:26.948Z,6.12
2019-05-10T05:51:56.283Z,6.40
2019-05-10T05:54:27.855Z,7.20
2019-05-10T05:56:57.156Z,5.53
2019-05-10T05:59:26.552Z,5.65
2019-05-10T06:02:04.691Z,5.05
2019-05-10T06:04:26.924Z,5.22
2019-05-10T06:06:59.152Z,5.30
2019-05-10T06:09:32.058Z,5.60
2019-05-10T06:11:58.372Z,4.20
2019-05-10T06:14:27.650Z,4.50
2019-05-10T06:16:56.977Z,4.58
2019-05-10T06:19:29.403Z,4.28
2019-05-10T06:21:58.004Z,4.60
2019-05-10T06:24:28.328Z,3.72
2019-05-10T06:26:58.273Z,4.22
2019-05-10T06:29:28.712Z,3.60
2019-05-10T06:31:58.951Z,3.75
2019-05-10T06:34:31.998Z,3.37
2019-05-10T06:36:59.455Z,4.33
2019-05-10T06:39:28.763Z,3.70
2019-05-10T06:41:58.407Z,3.10
2019-05-10T06:44:31.279Z,4.10
2019-05-10T06:47:02.026Z,3.58
2019-05-10T06:49:29.986Z,3.52
2019-05-10T06:51:59.262Z,3.70
2019-05-10T06:54:31.685Z,3.58
2019-05-10T06:57:02.029Z,3.20
2019-05-10T06:59:31.473Z,2.87
2019-05-10T07:02:00.848Z,3.08
2019-05-10T07:04:37.803Z,3.07
2019-05-10T07:07:10.236Z,2.80
2019-05-10T07:10:00.425Z,2.83
2019-05-10T07:12:09.248Z,3.30
2019-05-10T07:14:36.765Z,2.07
2019-05-10T07:17:06.105Z,2.87
2019-05-10T07:19:41.935Z,3.17
2019-05-10T07:22:06.553Z,2.90
2019-05-10T07:24:35.915Z,2.83
2019-05-10T07:27:05.839Z,2.80
2019-05-10T07:29:42.090Z,3.27
2019-05-10T07:32:06.332Z,3.00
2019-05-10T07:34:35.785Z,3.60
2019-05-10T07:37:05.272Z,2.97
2019-05-10T07:39:34.566Z,4.50
2019-05-10T07:42:06.660Z,3.43
2019-05-10T07:44:34.942Z,2.97
2019-05-10T07:47:04.199Z,4.10
2019-05-10T07:49:33.547Z,4.00
2019-05-10T07:52:04.402Z,3.17
2019-05-10T07:54:37.630Z,4.70
2019-05-10T07:57:04.958Z,3.00
2019-05-10T07:59:49.525Z,3.63
2019-05-10T08:02:12.229Z,3.70
2019-05-10T08:04:38.390Z,2.93
2019-05-10T08:07:10.317Z,3.50
2019-05-10T08:09:44.835Z,3.77
2019-05-10T08:12:12.837Z,3.30
2019-05-10T08:14:44.422Z,3.03
2019-05-10T08:17:11.655Z,3.10
2019-05-10T08:19:41.032Z,3.17
2019-05-10T08:22:12.879Z,2.10
2019-05-10T08:24:46.518Z,2.10
2019-05-10T08:27:14.794Z,2.50
2019-05-10T08:29:43.516Z,2.70
2019-05-10T08:32:12.994Z,2.90
2019-05-10T08:34:51.788Z,3.23
2019-05-10T08:37:19.439Z,2.50
2019-05-10T08:39:49.022Z,2.97
2019-05-10T08:42:34.634Z,3.53
2019-05-10T08:44:46.578Z,2.27
2019-05-10T08:47:24.140Z,3.33
2019-05-10T08:49:59.438Z,3.10
2019-05-10T08:52:19.289Z,3.53
2019-05-10T08:54:48.807Z,2.73
2019-05-10T08:57:18.770Z,2.27
2019-05-10T08:59:48.287Z,2.03
2019-05-10T09:02:23.032Z,2.63
2019-05-10T09:04:50.177Z,3.07
2019-05-10T09:07:19.649Z,2.70
2019-05-10T09:09:50.104Z,3.27
2019-05-10T09:12:20.061Z,2.53
2019-05-10T09:14:57.483Z,3.60
2019-05-10T09:17:23.556Z,2.93
2019-05-10T09:19:51.863Z,3.40
2019-05-10T09:22:25.987Z,3.00
2019-05-10T09:24:53.087Z,3.33
2019-05-10T09:27:22.640Z,3.27
2019-05-10T09:29:53.051Z,3.10
2019-05-10T09:32:28.602Z,2.93
2019-05-10T09:34:54.407Z,2.43
2019-05-10T09:37:23.989Z,3.60
2019-05-10T09:40:04.033Z,2.90
2019-05-10T09:42:26.771Z,2.67
2019-05-10T09:44:55.449Z,2.80
2019-05-10T09:47:24.841Z,2.20
2019-05-10T09:49:58.809Z,2.40
2019-05-10T09:52:25.304Z,2.70
2019-05-10T09:54:56.556Z,2.43
2019-05-10T09:57:27.760Z,2.67
2019-05-10T09:59:57.222Z,2.57
2019-05-10T10:02:33.490Z,3.47
2019-05-10T10:04:58.914Z,2.37
2019-05-10T10:07:33.178Z,2.90
2019-05-10T10:09:59.383Z,2.50
2019-05-10T10:12:28.988Z,3.10
2019-05-10T10:14:58.470Z,3.17
2019-05-10T10:17:30.665Z,3.10
2019-05-10T10:19:58.846Z,2.93
2019-05-10T10:22:28.238Z,3.50
2019-05-10T10:25:00.506Z,2.60
2019-05-10T10:27:34.748Z,2.53
2019-05-10T10:30:00.920Z,3.00
2019-05-10T10:32:34.632Z,2.57
2019-05-10T10:35:01.255Z,3.50
2019-05-10T10:37:32.280Z,2.70
2019-05-10T10:40:05.468Z,2.90
2019-05-10T10:42:32.654Z,2.43
2019-05-10T10:45:02.148Z,2.80
2019-05-10T10:47:32.349Z,2.87
2019-05-10T10:50:02.964Z,2.50
2019-05-10T10:52:32.978Z,2.40
2019-05-10T10:55:05.665Z,2.50
2019-05-10T10:57:37.215Z,2.50
2019-05-10T11:00:07.625Z,2.70
2019-05-10T11:02:37.181Z,3.60
2019-05-10T11:05:06.608Z,3.20
2019-05-10T11:07:38.666Z,2.93
2019-05-10T11:10:15.388Z,3.10
2019-05-10T11:12:38.302Z,2.73
2019-05-10T11:15:07.632Z,2.67
2019-05-10T11:17:36.937Z,3.27
2019-05-10T11:20:08.535Z,3.23
2019-05-10T11:22:42.081Z,3.70
2019-05-10T11:25:10.418Z,3.40
2019-05-10T11:27:41.593Z,3.07
2019-05-10T11:30:12.361Z,3.27
2019-05-10T11:32:42.050Z,3.17
2019-05-10T11:35:17.234Z,3.63
2019-05-10T11:37:45.556Z,3.30
2019-05-10T11:40:18.026Z,2.60
2019-05-10T11:42:47.426Z,2.47
2019-05-10T11:45:16.659Z,3.40
2019-05-10T11:47:48.040Z,1.97
2019-05-10T11:50:28.751Z,2.47
2019-05-10T11:52:51.036Z,2.00
2019-05-10T11:55:21.633Z,2.30
2019-05-10T11:58:01.829Z,3.00
2019-05-10T12:00:29.127Z,2.10
2019-05-10T12:03:06.969Z,2.73
2019-05-10T12:05:26.691Z,1.70
2019-05-10T12:07:55.068Z,1.90
2019-05-10T12:10:25.732Z,2.30
2019-05-10T12:13:10.920Z,1.70
2019-05-10T12:15:26.544Z,1.60
2019-05-10T12:17:59.615Z,1.90
2019-05-10T12:20:46.398Z,1.50
2019-05-10T12:23:02.951Z,1.73
2019-05-10T12:25:47.200Z,2.17
2019-05-10T12:28:01.248Z,2.03
2019-05-10T12:30:34.901Z,1.90
2019-05-10T12:33:08.782Z,1.70
2019-05-10T12:35:39.878Z,2.03
2019-05-10T12:38:04.178Z,1.70
2019-05-10T12:40:33.582Z,1.53
2019-05-10T12:43:03.046Z,1.80
2019-05-10T12:45:32.605Z,1.53
2019-05-10T12:48:02.067Z,1.50
2019-05-10T12:50:31.506Z,1.50
2019-05-10T12:53:08.207Z,1.63
2019-05-10T12:55:31.973Z,1.50
2019-05-10T12:58:01.351Z,1.70
2019-05-10T13:00:30.731Z,1.67
2019-05-10T13:03:12.141Z,2.13
2019-05-10T13:05:33.882Z,1.40
2019-05-10T13:08:02.242Z,1.47
2019-05-10T13:10:31.717Z,1.43
2019-05-10T13:13:01.875Z,1.37
2019-05-10T13:15:33.363Z,2.03
2019-05-10T13:18:03.117Z,1.57
2019-05-10T13:20:36.610Z,1.33
2019-05-10T13:23:04.375Z,1.50
2019-05-10T13:25:34.040Z,1.73
2019-05-10T13:28:03.819Z,1.70
2019-05-10T13:30:33.240Z,1.77
2019-05-10T13:33:05.321Z,1.57
2019-05-10T13:35:34.702Z,2.03
2019-05-10T13:38:06.429Z,1.67
2019-05-10T13:40:39.053Z,1.67
2019-05-10T13:43:06.209Z,1.50
2019-05-10T13:45:37.728Z,1.60
2019-05-10T13:48:06.764Z,1.80
2019-05-10T13:50:36.214Z,2.07
2019-05-10T13:53:05.623Z,1.57
2019-05-10T13:55:35.019Z,1.70
2019-05-10T13:58:04.488Z,1.60
2019-05-10T14:00:35.897Z,1.53
2019-05-10T14:03:11.214Z,1.40
2019-05-10T14:05:39.603Z,1.43
2019-05-10T14:08:07.320Z,1.53
2019-05-10T14:10:36.750Z,1.70
2019-05-10T14:13:06.105Z,1.90
2019-05-10T14:15:35.498Z,1.73
2019-05-10T14:18:05.003Z,1.87
2019-05-10T14:20:34.284Z,1.93
2019-05-10T14:23:03.762Z,1.73
2019-05-10T14:25:36.465Z,1.70
2019-05-10T14:28:09.611Z,1.93
2019-05-10T14:30:35.481Z,2.07
2019-05-10T14:33:08.743Z,1.50
2019-05-10T14:35:36.305Z,1.97
2019-05-10T14:38:08.397Z,1.67
2019-05-10T14:40:36.915Z,1.60
2019-05-10T14:43:06.231Z,1.67
2019-05-10T14:45:35.637Z,1.80
2019-05-10T14:48:05.259Z,1.80
2019-05-10T14:50:34.670Z,1.63
2019-05-10T14:53:04.153Z,1.93
2019-05-10T14:55:37.010Z,1.50
2019-05-10T14:58:06.408Z,1.73
2019-05-10T15:00:35.828Z,1.70
2019-05-10T15:03:05.417Z,1.67
2019-05-10T15:05:36.588Z,1.30
2019-05-10T15:08:05.920Z,1.30
2019-05-10T15:10:39.585Z,1.60
2019-05-10T15:13:06.522Z,1.60
2019-05-10T15:15:37.303Z,1.90
2019-05-10T15:18:07.159Z,1.43
2019-05-10T15:20:36.573Z,1.40
2019-05-10T15:23:05.994Z,3.00
2019-05-10T15:25:35.359Z,1.50
2019-05-10T15:28:05.129Z,1.57
2019-05-10T15:30:39.352Z,2.10
2019-05-10T15:33:05.677Z,2.53
2019-05-10T15:35:35.164Z,2.17
2019-05-10T15:38:04.632Z,1.80
2019-05-10T15:40:38.611Z,2.70
2019-05-10T15:43:10.727Z,2.87
2019-05-10T15:45:36.237Z,1.73
2019-05-10T15:48:05.646Z,2.20
2019-05-10T15:50:38.770Z,2.17
2019-05-10T15:53:06.189Z,2.77
2019-05-10T15:55:35.530Z,2.60
2019-05-10T15:58:04.976Z,2.20
2019-05-10T16:00:39.293Z,2.40
2019-05-10T16:03:05.515Z,3.10
2019-05-10T16:05:43.517Z,3.30
2019-05-10T16:08:05.977Z,3.00
2019-05-10T16:10:39.511Z,2.43
2019-05-10T16:13:06.507Z,2.80
2019-05-10T16:15:35.972Z,2.63
2019-05-10T16:18:05.467Z,2.60
2019-05-10T16:20:37.269Z,2.70
2019-05-10T16:23:08.704Z,2.70
2019-05-10T16:25:41.529Z,3.23
2019-05-10T16:28:08.298Z,2.63
2019-05-10T16:30:37.758Z,3.07
2019-05-10T16:33:09.634Z,2.70
2019-05-10T16:35:39.221Z,2.63
2019-05-10T16:38:08.935Z,3.03
2019-05-10T16:40:38.372Z,3.03
2019-05-10T16:43:13.411Z,2.93
2019-05-10T16:45:38.786Z,2.93
2019-05-10T16:48:08.313Z,2.67
2019-05-10T16:50:37.790Z,2.90
2019-05-10T16:53:08.187Z,2.90
2019-05-10T16:55:40.669Z,2.77
2019-05-10T16:58:09.572Z,2.53
2019-05-10T17:00:40.669Z,2.60
2019-05-10T17:03:13.132Z,2.60
2019-05-10T17:05:53.029Z,2.83
2019-05-10T17:08:13.332Z,3.20
2019-05-10T17:10:42.662Z,3.20
2019-05-10T17:13:12.024Z,2.90
2019-05-10T17:15:41.754Z,3.17
2019-05-10T17:18:17.416Z,2.53
2019-05-10T17:20:45.571Z,3.03
2019-05-10T17:23:13.296Z,2.63
2019-05-10T17:25:42.712Z,3.20
2019-05-10T17:28:12.206Z,2.90
2019-05-10T17:30:44.737Z,2.47
2019-05-10T17:33:12.845Z,3.40
2019-05-10T17:35:44.013Z,2.33
2019-05-10T17:38:16.147Z,3.10
2019-05-10T17:40:47.522Z,3.33
2019-05-10T17:43:20.513Z,2.90
2019-05-10T17:45:46.600Z,3.47
2019-05-10T17:48:16.383Z,3.80
2019-05-10T17:50:46.033Z,3.70
2019-05-10T17:53:15.555Z,4.03
2019-05-10T17:55:49.360Z,2.97
2019-05-10T17:58:18.525Z,3.07
2019-05-10T18:00:47.993Z,3.00
2019-05-10T18:03:18.000Z,2.90
2019-05-10T18:05:52.806Z,3.30
2019-05-10T18:08:18.421Z,3.47
2019-05-10T18:10:47.744Z,2.90
2019-05-10T18:13:17.126Z,2.90
2019-05-10T18:15:46.644Z,2.80
2019-05-10T18:18:16.056Z,2.70
2019-05-10T18:20:45.414Z,3.30
2019-05-10T18:23:21.038Z,3.10
2019-05-10T18:25:47.493Z,2.60
2019-05-10T18:28:21.138Z,3.00
2019-05-10T18:30:47.976Z,2.70
2019-05-10T18:33:17.384Z,2.90
2019-05-10T18:35:52.913Z,3.30
2019-05-10T18:38:19.067Z,2.83
2019-05-10T18:40:48.584Z,3.07
2019-05-10T18:43:17.953Z,3.67
2019-05-10T18:45:49.846Z,3.37
2019-05-10T18:48:19.336Z,3.40
2019-05-10T18:50:48.907Z,2.97
2019-05-10T18:53:18.287Z,2.90
2019-05-10T18:55:47.641Z,2.53
2019-05-10T18:58:17.111Z,3.07
2019-05-10T19:00:47.078Z,2.77
2019-05-10T19:03:16.555Z,3.40
2019-05-10T19:05:48.578Z,3.93
2019-05-10T19:08:18.017Z,4.67
2019-05-10T19:10:49.218Z,5.00
2019-05-10T19:13:19.103Z,4.37
2019-05-10T19:15:52.914Z,4.10
2019-05-10T19:18:23.271Z,3.70
2019-05-10T19:20:53.543Z,4.00
2019-05-10T19:23:23.033Z,3.80
2019-05-10T19:25:53.891Z,3.10
2019-05-10T19:28:26.699Z,2.73
2019-05-10T19:30:58.573Z,3.30
2019-05-10T19:33:29.604Z,3.23
2019-05-10T19:35:56.993Z,3.60
2019-05-10T19:38:26.432Z,2.47
2019-05-10T19:40:55.797Z,3.63
2019-05-10T19:43:25.236Z,3.10
2019-05-10T19:45:57.414Z,3.87
2019-05-10T19:48:29.417Z,5.90
2019-05-10T19:50:56.940Z,5.20
2019-05-10T19:53:26.374Z,6.62
2019-05-10T19:55:57.404Z,5.60
2019-05-10T19:58:32.303Z,6.00
2019-05-10T20:00:58.091Z,5.20
2019-05-10T20:03:27.451Z,5.40
2019-05-10T20:05:57.013Z,5.92
2019-05-10T20:08:26.549Z,6.45
2019-05-10T20:10:55.999Z,5.30
2019-05-10T20:13:25.468Z,6.77
2019-05-10T20:15:55.003Z,5.93
2019-05-10T20:18:24.498Z,5.12
2019-05-10T20:20:54.128Z,6.80
2019-05-10T20:23:23.609Z,6.07
2019-05-10T20:25:53.145Z,7.00
2019-05-10T20:28:22.553Z,5.63
2019-05-10T20:30:53.002Z,6.83
2019-05-10T20:33:22.373Z,6.80
2019-05-10T20:35:51.795Z,6.40
2019-05-10T20:38:21.193Z,7.33
2019-05-10T20:40:50.541Z,6.80
2019-05-10T20:43:19.847Z,6.73
2019-05-10T20:45:49.236Z,7.28
2019-05-10T20:48:18.705Z,8.10
2019-05-10T20:50:48.091Z,7.05
2019-05-10T20:53:17.475Z,6.37
2019-05-10T20:55:46.856Z,6.40
2019-05-10T20:58:16.164Z,7.12
2019-05-10T21:00:45.765Z,7.25
2019-05-10T21:03:15.294Z,7.05
2019-05-10T21:05:44.738Z,6.85
2019-05-10T21:08:16.925Z,6.00
2019-05-10T21:10:45.311Z,6.53
2019-05-10T21:13:14.862Z,6.62
2019-05-10T21:15:44.302Z,6.20
2019-05-10T21:18:13.696Z,6.15
2019-05-10T21:20:42.992Z,5.85
2019-05-10T21:23:12.406Z,6.35
2019-05-10T21:25:41.889Z,6.08
2019-05-10T21:28:11.256Z,6.50
2019-05-10T21:30:40.611Z,6.85
2019-05-10T21:33:10.132Z,6.22
2019-05-10T21:35:39.566Z,6.50
2019-05-10T21:38:08.964Z,4.87
2019-05-10T21:40:38.372Z,4.45
2019-05-10T21:43:07.831Z,4.87
2019-05-10T21:45:37.211Z,8.40
2019-05-10T21:48:06.660Z,6.95
2019-05-10T21:50:36.087Z,6.15
2019-05-10T21:53:05.550Z,5.35
2019-05-10T21:55:34.973Z,4.92
2019-05-10T21:58:04.388Z,5.20
2019-05-10T22:00:37.220Z,4.70
2019-05-10T22:03:06.638Z,5.25
2019-05-10T22:05:36.111Z,4.78
2019-05-10T22:08:05.531Z,4.72
2019-05-10T22:10:34.902Z,4.65
2019-05-10T22:13:04.265Z,5.15
2019-05-10T22:15:33.627Z,5.15
2019-05-10T22:18:03.015Z,5.60
2019-05-10T22:20:32.430Z,4.97
2019-05-10T22:23:01.878Z,5.35
2019-05-10T22:25:31.329Z,4.60
2019-05-10T22:28:00.708Z,5.05
2019-05-10T22:30:30.221Z,5.37
2019-05-10T22:32:59.633Z,5.10
2019-05-10T22:35:29.006Z,5.20
2019-05-10T22:37:58.342Z,5.10
2019-05-10T22:40:27.751Z,4.90
2019-05-10T22:42:57.232Z,4.17
2019-05-10T22:45:26.589Z,5.42
2019-05-10T22:47:55.934Z,5.40
2019-05-10T22:50:25.304Z,5.42
2019-05-10T22:52:54.683Z,5.83
2019-05-10T22:55:24.054Z,4.60
2019-05-10T22:57:53.452Z,5.00
2019-05-10T23:00:23.438Z,5.80
2019-05-10T23:02:52.828Z,6.67
2019-05-10T23:05:22.205Z,5.65
2019-05-10T23:07:51.591Z,4.62
2019-05-10T23:10:20.984Z,6.40
2019-05-10T23:12:50.404Z,5.50
2019-05-10T23:15:19.816Z,5.60
2019-05-10T23:17:49.296Z,5.25
2019-05-10T23:20:18.686Z,5.42
2019-05-10T23:22:48.017Z,5.75
2019-05-10T23:25:17.375Z,5.12
2019-05-10T23:27:49.092Z,7.33
2019-05-10T23:30:18.483Z,6.10
2019-05-10T23:32:47.868Z,6.65
2019-05-10T23:35:17.272Z,5.33
2019-05-10T23:37:46.634Z,5.75
2019-05-10T23:40:16.128Z,5.17
2019-05-10T23:42:45.488Z,6.08
2019-05-10T23:45:15.030Z,5.55
2019-05-10T23:47:44.487Z,6.42
2019-05-10T23:50:14.991Z,5.30
2019-05-10T23:52:44.327Z,5.60
2019-05-10T23:55:13.788Z,5.60
2019-05-10T23:57:43.185Z,5.72
